Accueil
METAR-TAF:

METAR-TAF

Aéroports :

Portage Glacier, Alaska, États-Unis

latitude: 60-47N, longitude: 148-50W, altitude: 29 m

Observation

Le bulletin a été fait il y a 16 minutes, à 00:19 UTC
Vent 6 kt de ouest
Température -3°C
Humidité 68%
Pression 1005 hPa
Visibilité: 4.0 km
Ciel couvert à une hauteur de 2000 ft
neige faible

METAR: PATO 230019Z AUTO 27006KT 2 1/2SM -SN OVC020 M03/M08 A2967 RMK AO2 P0000 T10281083 TSNO

Heure: 15:35 (00:35 UTC)


TAF: absent

Observations et prévisions météorologiques de plus de 4000 aéroports (messages METAR et TAF).

Les stations disponibles sont représentées par des disques jaunes et rouges sur la carte.

Passer la souris dessus pour voir le nom de la station.

Cliquer dessus pour voir les observations et prévisions météorologiques.

Pour changer de carte: cliquez sur les boutons verts avec une croix noire pour zoomer, sur le bouton vert avec un tiret pour effectuer un zoom arrière, ou sur les flèches vertes pour les cartes adjacentes.


METAR-TAF: